Time;durP1;ratioP1;P1;durP2;ratioP2;P2;SDS_P1;SDS_P2;PMS_P1;PMS_P2;Temp;Humidity;BMP_temperature;BMP_pressure;BME280_temperature;BME280_humidity;BME280_pressure;Samples;Min_cycle;Max_cycle;Signal;HPM_P1;HPM_P2
2021/05/09 00:01:53;;;;;;;10.73;6.40;;;12.80;91.20;;;;;;5070093;28;20075;-52
2021/05/09 00:04:19;;;;;;;10.38;6.43;;;12.80;91.20;;;;;;5069895;28;20033;-53
2021/05/09 00:06:48;;;;;;;8.60;6.20;;;12.80;91.20;;;;;;5072737;28;20090;-50
2021/05/09 00:09:15;;;;;;;12.35;6.50;;;12.80;91.30;;;;;;5028007;28;20045;-53
2021/05/09 00:11:42;;;;;;;14.25;6.65;;;12.80;91.30;;;;;;5073646;28;20101;-52
2021/05/09 00:14:07;;;;;;;12.25;6.47;;;12.80;91.30;;;;;;5070255;28;20078;-53
2021/05/09 00:16:37;;;;;;;12.93;6.55;;;12.70;91.20;;;;;;5072718;28;20056;-53
2021/05/09 00:19:05;;;;;;;9.02;6.22;;;12.70;91.30;;;;;;5050305;28;20398;-51
2021/05/09 00:21:35;;;;;;;8.68;6.40;;;12.70;91.30;;;;;;5071224;28;20048;-54
2021/05/09 00:24:03;;;;;;;8.88;6.05;;;12.70;91.30;;;;;;5073114;28;20323;-50
2021/05/09 00:26:30;;;;;;;8.35;6.13;;;12.80;91.20;;;;;;5054852;28;20040;-52
2021/05/09 00:28:56;;;;;;;12.55;6.30;;;12.70;91.20;;;;;;5072439;28;20052;-53
2021/05/09 00:31:21;;;;;;;9.98;5.85;;;12.80;91.00;;;;;;5072936;28;20037;-54
2021/05/09 00:33:52;;;;;;;10.35;6.05;;;12.80;91.00;;;;;;5072702;28;20044;-54
2021/05/09 00:36:18;;;;;;;8.65;5.95;;;12.90;91.10;;;;;;5072665;28;20044;-51
2021/05/09 00:39:06;;;;;;;10.75;6.05;;;12.90;91.00;;;;;;5049991;28;20057;-52
2021/05/09 00:41:34;;;;;;;11.55;5.90;;;12.90;91.00;;;;;;5049748;28;20028;-51
2021/05/09 00:44:07;;;;;;;10.02;6.40;;;12.90;91.10;;;;;;5056407;28;20127;-53
2021/05/09 00:46:33;;;;;;;6.80;5.32;;;12.90;91.00;;;;;;5069682;28;20036;-51
2021/05/09 00:49:01;;;;;;;8.90;6.28;;;12.90;91.00;;;;;;5071820;28;20052;-53
2021/05/09 00:51:27;;;;;;;10.10;6.22;;;13.00;91.00;;;;;;5072656;28;20098;-53
2021/05/09 00:53:56;;;;;;;11.52;6.40;;;13.00;90.90;;;;;;5072848;28;20041;-53
2021/05/09 00:56:24;;;;;;;9.57;6.22;;;13.10;90.80;;;;;;5072810;28;20055;-53
2021/05/09 00:58:51;;;;;;;10.40;6.22;;;13.10;90.70;;;;;;5071840;28;20036;-56
2021/05/09 01:01:17;;;;;;;10.20;6.18;;;13.10;90.60;;;;;;5071759;28;20059;-50
2021/05/09 01:03:47;;;;;;;13.30;6.43;;;13.10;90.60;;;;;;5072832;28;20401;-54
2021/05/09 01:06:14;;;;;;;8.57;5.70;;;13.00;90.60;;;;;;5054416;28;20044;-52
2021/05/09 01:08:43;;;;;;;9.18;6.53;;;13.00;90.70;;;;;;5042336;28;20048;-53
2021/05/09 01:11:09;;;;;;;9.55;6.55;;;12.90;90.60;;;;;;5072513;28;20075;-53
2021/05/09 01:13:35;;;;;;;9.05;6.22;;;12.90;90.50;;;;;;5071408;28;20032;-51
2021/05/09 01:16:01;;;;;;;8.07;6.10;;;12.90;90.50;;;;;;5072095;28;20037;-53
2021/05/09 01:18:28;;;;;;;9.65;5.65;;;12.80;90.50;;;;;;5070056;28;20051;-54
2021/05/09 01:20:54;;;;;;;11.38;6.00;;;12.80;90.60;;;;;;5071461;28;20040;-53
2021/05/09 01:23:21;;;;;;;11.63;6.57;;;12.80;90.60;;;;;;5071820;28;20048;-54
2021/05/09 01:25:47;;;;;;;9.15;6.35;;;12.80;90.60;;;;;;5037496;28;20087;-51
2021/05/09 01:28:13;;;;;;;12.52;6.38;;;12.80;90.50;;;;;;5071948;28;20496;-53
2021/05/09 01:30:40;;;;;;;10.18;6.28;;;12.70;90.40;;;;;;5070548;28;20115;-55
2021/05/09 01:33:06;;;;;;;9.52;6.35;;;12.70;90.40;;;;;;5054277;28;20182;-51
2021/05/09 01:35:34;;;;;;;10.98;6.65;;;12.70;90.50;;;;;;5037292;28;20640;-52
2021/05/09 01:38:01;;;;;;;9.55;6.38;;;12.60;90.50;;;;;;5071958;28;20120;-53
2021/05/09 01:40:28;;;;;;;12.18;6.65;;;12.60;90.40;;;;;;5022510;28;20516;-51
2021/05/09 01:42:53;;;;;;;11.75;6.65;;;12.60;90.30;;;;;;5059423;28;20036;-53
2021/05/09 01:45:19;;;;;;;11.32;6.07;;;12.60;90.40;;;;;;5071996;28;20040;-54
2021/05/09 01:47:45;;;;;;;9.05;6.53;;;12.60;90.40;;;;;;5071394;28;20041;-54
2021/05/09 01:50:14;;;;;;;11.35;7.03;;;12.50;90.40;;;;;;5070381;28;20119;-50
2021/05/09 01:52:41;;;;;;;9.13;6.82;;;12.50;90.50;;;;;;5070965;28;20534;-53
2021/05/09 01:55:12;;;;;;;9.52;6.45;;;12.50;90.50;;;;;;5070302;28;20068;-52
2021/05/09 01:57:39;;;;;;;12.38;5.85;;;12.50;90.40;;;;;;5068937;28;20036;-54
2021/05/09 02:00:08;;;;;;;10.13;6.47;;;12.50;90.30;;;;;;5071120;28;20051;-53
2021/05/09 02:02:34;;;;;;;9.23;6.60;;;12.40;90.30;;;;;;5052676;28;20143;-55
2021/05/09 02:05:04;;;;;;;10.48;5.97;;;12.40;90.20;;;;;;5070933;28;20135;-52
2021/05/09 02:07:49;;;;;;;10.27;6.40;;;12.50;90.20;;;;;;5055980;28;20049;-53
2021/05/09 02:10:15;;;;;;;12.00;6.18;;;12.50;90.00;;;;;;5070919;28;20048;-56
2021/05/09 02:12:41;;;;;;;11.90;6.20;;;12.50;89.80;;;;;;5037149;28;20050;-53
2021/05/09 02:15:09;;;;;;;11.15;6.68;;;12.50;90.10;;;;;;5068863;28;20044;-53
2021/05/09 02:17:35;;;;;;;11.55;5.93;;;12.50;89.50;;;;;;5071296;28;20045;-53
2021/05/09 02:20:06;;;;;;;9.93;6.13;;;12.50;89.70;;;;;;5068821;28;20120;-52
2021/05/09 02:22:32;;;;;;;12.07;6.38;;;12.50;89.40;;;;;;5069287;28;20043;-54
2021/05/09 02:24:59;;;;;;;9.30;5.75;;;12.50;89.40;;;;;;5070522;28;20119;-54
2021/05/09 02:27:25;;;;;;;8.40;5.72;;;12.50;89.40;;;;;;5070578;28;20503;-50
2021/05/09 02:29:51;;;;;;;9.23;5.82;;;12.50;89.10;;;;;;5070057;28;20036;-54
2021/05/09 02:32:16;;;;;;;13.27;6.03;;;12.60;89.20;;;;;;5070617;28;20081;-53
2021/05/09 02:34:44;;;;;;;9.68;6.10;;;12.50;88.90;;;;;;5070162;28;20047;-54
2021/05/09 02:37:09;;;;;;;9.57;5.93;;;12.60;88.90;;;;;;5070553;28;20040;-55
2021/05/09 02:39:35;;;;;;;7.78;5.45;;;12.60;88.60;;;;;;5069855;28;20044;-55
2021/05/09 02:42:05;;;;;;;12.38;6.28;;;12.60;88.30;;;;;;5069459;28;20048;-54
2021/05/09 02:44:32;;;;;;;10.25;6.40;;;12.60;88.20;;;;;;5070904;28;20047;-55
2021/05/09 02:46:57;;;;;;;11.55;6.07;;;12.50;88.60;;;;;;5033011;28;20064;-55
2021/05/09 02:49:24;;;;;;;11.07;6.10;;;12.50;88.60;;;;;;5069303;28;20052;-55
2021/05/09 02:51:50;;;;;;;7.47;5.88;;;12.40;89.00;;;;;;5052497;28;20127;-54
2021/05/09 02:54:16;;;;;;;10.23;6.00;;;12.50;88.40;;;;;;5069339;28;20124;-55
2021/05/09 02:56:41;;;;;;;11.95;5.97;;;12.40;88.70;;;;;;5069657;28;20098;-54
2021/05/09 02:59:07;;;;;;;10.48;5.90;;;12.40;88.80;;;;;;5069508;28;20040;-55
2021/05/09 03:01:32;;;;;;;11.02;6.20;;;12.50;88.30;;;;;;5063678;28;20500;-55
2021/05/09 03:03:58;;;;;;;8.98;5.57;;;12.40;88.70;;;;;;5044203;28;20500;-55
2021/05/09 03:06:24;;;;;;;9.10;6.00;;;12.40;88.60;;;;;;5070894;28;20035;-55
2021/05/09 03:08:49;;;;;;;10.57;6.00;;;12.40;88.90;;;;;;5070166;28;20483;-55
2021/05/09 03:11:15;;;;;;;10.85;5.72;;;12.30;89.00;;;;;;5063468;28;20059;-55
2021/05/09 03:13:41;;;;;;;10.20;6.07;;;12.40;89.00;;;;;;5070367;28;20048;-55
2021/05/09 03:16:06;;;;;;;9.60;5.97;;;12.40;88.70;;;;;;5069445;28;20071;-55
2021/05/09 03:18:32;;;;;;;9.80;5.85;;;12.40;88.80;;;;;;5070809;28;20051;-55
2021/05/09 03:20:58;;;;;;;10.00;6.30;;;12.40;89.00;;;;;;5063985;28;20754;-55
2021/05/09 03:23:24;;;;;;;12.23;5.85;;;12.40;89.50;;;;;;5068838;28;20085;-55
2021/05/09 03:25:50;;;;;;;8.85;6.40;;;12.30;88.50;;;;;;5070112;28;20029;-55
2021/05/09 03:28:16;;;;;;;11.07;6.00;;;12.40;88.40;;;;;;5069583;28;20374;-56
2021/05/09 03:30:42;;;;;;;10.18;6.18;;;12.40;88.70;;;;;;5069924;28;20143;-55
2021/05/09 03:33:08;;;;;;;11.73;6.00;;;12.40;88.70;;;;;;5070362;28;20064;-53
2021/05/09 03:35:34;;;;;;;9.40;5.50;;;12.40;88.70;;;;;;5052474;28;20391;-56
2021/05/09 03:38:01;;;;;;;11.00;6.30;;;12.40;88.70;;;;;;5068950;28;20520;-56
2021/05/09 03:40:26;;;;;;;9.45;5.78;;;12.40;88.70;;;;;;5069985;28;20048;-56
2021/05/09 03:42:53;;;;;;;8.63;5.90;;;12.40;88.60;;;;;;5073115;28;20569;-55
2021/05/09 03:45:19;;;;;;;8.02;6.03;;;12.40;88.30;;;;;;5055473;28;20576;-55
2021/05/09 03:47:44;;;;;;;10.07;5.93;;;12.40;88.50;;;;;;5073367;28;20120;-55
2021/05/09 03:50:10;;;;;;;11.13;5.80;;;12.40;88.50;;;;;;5072625;28;20040;-56
2021/05/09 03:52:36;;;;;;;13.23;6.43;;;12.40;88.30;;;;;;5073791;28;20150;-56
2021/05/09 03:55:03;;;;;;;11.93;6.03;;;12.30;88.60;;;;;;5065616;28;20054;-56
2021/05/09 03:57:29;;;;;;;7.93;5.47;;;12.30;88.40;;;;;;5073706;28;20067;-56
2021/05/09 03:59:55;;;;;;;9.68;5.72;;;12.30;88.70;;;;;;5069493;28;20083;-56
2021/05/09 04:02:21;;;;;;;8.38;5.82;;;12.30;88.40;;;;;;5053705;28;20051;-56
2021/05/09 04:04:46;;;;;;;11.18;5.55;;;12.30;88.90;;;;;;5074522;28;20032;-56
2021/05/09 04:07:12;;;;;;;9.43;6.13;;;12.30;88.60;;;;;;5055781;28;20139;-54
2021/05/09 04:09:38;;;;;;;13.02;5.65;;;12.30;88.70;;;;;;5065534;28;20036;-55
2021/05/09 04:12:05;;;;;;;12.25;5.80;;;12.40;88.20;;;;;;5074468;28;20742;-56
2021/05/09 04:14:32;;;;;;;9.95;5.65;;;12.30;88.30;;;;;;5065922;28;20393;-56
2021/05/09 04:16:58;;;;;;;11.23;5.80;;;12.30;88.40;;;;;;5073961;28;20047;-56
2021/05/09 04:19:23;;;;;;;10.10;5.82;;;12.30;89.00;;;;;;5074878;28;20052;-56
2021/05/09 04:21:49;;;;;;;10.15;5.63;;;12.30;88.70;;;;;;5076413;28;20162;-56
2021/05/09 04:24:15;;;;;;;10.85;5.32;;;12.30;88.60;;;;;;5066001;28;20079;-55
2021/05/09 04:26:40;;;;;;;9.85;5.80;;;12.20;89.00;;;;;;5075017;28;20047;-56
2021/05/09 04:29:06;;;;;;;9.10;5.30;;;12.20;89.20;;;;;;5068399;28;20040;-56
2021/05/09 04:31:32;;;;;;;10.65;5.35;;;12.20;89.40;;;;;;5074463;28;20321;-53
2021/05/09 04:34:00;;;;;;;10.77;5.50;;;12.20;89.10;;;;;;5073076;28;20044;-53
2021/05/09 04:36:25;;;;;;;8.88;5.82;;;12.30;89.00;;;;;;5072840;28;20037;-55
2021/05/09 04:38:51;;;;;;;10.23;5.47;;;12.30;88.90;;;;;;5072383;28;20055;-54
2021/05/09 04:41:17;;;;;;;9.98;5.30;;;12.40;88.60;;;;;;5072929;28;20046;-53
2021/05/09 04:43:43;;;;;;;8.77;5.13;;;12.40;88.80;;;;;;5072528;28;20041;-53
2021/05/09 04:46:09;;;;;;;8.13;5.50;;;12.40;88.40;;;;;;5072674;28;20560;-54
2021/05/09 04:48:35;;;;;;;9.60;5.35;;;12.50;88.10;;;;;;5072593;28;20041;-55
2021/05/09 04:51:01;;;;;;;8.20;5.18;;;12.60;88.00;;;;;;5054200;28;20126;-56
2021/05/09 04:53:35;;;;;;;10.18;5.25;;;12.60;88.00;;;;;;5066324;28;20444;-56
2021/05/09 04:56:08;;;;;;;9.63;5.60;;;12.60;87.80;;;;;;5066440;28;20040;-56
2021/05/09 04:58:39;;;;;;;13.07;4.93;;;12.70;87.80;;;;;;5069129;28;20044;-55
2021/05/09 05:01:06;;;;;;;10.07;5.63;;;12.70;87.70;;;;;;5065652;28;20118;-56
2021/05/09 05:03:33;;;;;;;9.27;5.20;;;12.80;87.30;;;;;;5066912;28;20048;-56
2021/05/09 05:05:59;;;;;;;8.88;5.15;;;12.80;87.30;;;;;;5072293;28;20041;-56
2021/05/09 05:08:24;;;;;;;9.15;5.28;;;12.90;87.50;;;;;;5072677;28;20098;-52
2021/05/09 05:10:50;;;;;;;10.75;5.38;;;12.90;87.30;;;;;;5072118;28;20032;-55
2021/05/09 05:13:24;;;;;;;9.45;5.50;;;13.10;87.20;;;;;;5071919;28;20036;-55
2021/05/09 05:15:53;;;;;;;10.10;5.43;;;13.20;86.70;;;;;;5047878;28;20037;-55
2021/05/09 05:18:22;;;;;;;9.25;5.97;;;13.20;86.40;;;;;;5073253;28;20048;-56
2021/05/09 05:20:49;;;;;;;11.23;5.78;;;13.30;86.60;;;;;;5064849;28;20075;-55
2021/05/09 05:23:15;;;;;;;9.05;5.38;;;13.40;86.30;;;;;;5072745;28;20039;-53
2021/05/09 05:25:41;;;;;;;8.95;5.28;;;13.50;85.80;;;;;;5067248;28;20040;-53
2021/05/09 05:28:09;;;;;;;13.65;5.38;;;13.60;85.40;;;;;;5071729;28;20068;-51
2021/05/09 05:30:35;;;;;;;9.00;5.10;;;13.80;84.90;;;;;;5071659;28;20064;-53
2021/05/09 05:33:01;;;;;;;8.35;5.10;;;13.90;84.10;;;;;;5072774;28;20040;-56
2021/05/09 05:35:27;;;;;;;9.48;5.18;;;14.10;83.50;;;;;;5071311;28;20036;-52
2021/05/09 05:37:55;;;;;;;10.98;5.30;;;14.40;82.50;;;;;;5072830;28;20089;-53
2021/05/09 05:40:25;;;;;;;8.00;5.10;;;14.70;81.40;;;;;;5056091;28;20055;-53
2021/05/09 05:42:51;;;;;;;13.98;5.32;;;14.80;81.00;;;;;;5072678;28;20068;-56
2021/05/09 05:45:17;;;;;;;9.55;5.55;;;14.90;81.30;;;;;;5046536;28;20071;-54
2021/05/09 05:47:43;;;;;;;10.52;5.47;;;15.10;79.80;;;;;;5068293;28;20116;-55
2021/05/09 05:50:10;;;;;;;10.40;5.10;;;15.50;78.80;;;;;;5072454;28;20049;-54
2021/05/09 05:52:36;;;;;;;7.95;4.80;;;15.90;77.90;;;;;;5055032;28;20040;-53
2021/05/09 05:55:03;;;;;;;8.43;4.90;;;16.00;77.00;;;;;;5074474;28;20044;-54
2021/05/09 05:57:30;;;;;;;9.35;4.80;;;16.10;76.50;;;;;;5072825;28;20437;-52
2021/05/09 05:59:55;;;;;;;8.75;4.85;;;16.10;76.90;;;;;;5065450;28;20040;-53
2021/05/09 06:02:21;;;;;;;11.05;5.10;;;16.00;77.30;;;;;;5072200;28;20523;-56
2021/05/09 06:04:48;;;;;;;7.85;4.72;;;16.10;77.50;;;;;;5070095;28;20067;-55
2021/05/09 06:07:13;;;;;;;9.60;5.25;;;16.30;76.60;;;;;;5065318;28;20072;-52
2021/05/09 06:09:39;;;;;;;8.40;5.10;;;16.60;76.20;;;;;;5071125;28;20063;-56
2021/05/09 06:12:06;;;;;;;8.90;5.18;;;16.90;75.50;;;;;;5054072;28;20048;-54
2021/05/09 06:14:32;;;;;;;9.50;5.85;;;17.10;74.40;;;;;;5064306;28;20036;-56
2021/05/09 06:16:58;;;;;;;11.10;5.50;;;16.90;74.40;;;;;;5061272;28;20385;-53
2021/05/09 06:19:23;;;;;;;10.00;5.30;;;16.70;74.70;;;;;;5070868;28;20044;-57
2021/05/09 06:21:49;;;;;;;11.20;5.88;;;16.60;75.90;;;;;;5052236;28;20048;-53
2021/05/09 06:24:15;;;;;;;10.95;5.78;;;16.50;76.10;;;;;;5071948;28;20036;-56
2021/05/09 06:26:41;;;;;;;8.88;5.28;;;16.40;76.30;;;;;;5071078;28;20043;-55
2021/05/09 06:29:07;;;;;;;10.32;5.43;;;16.40;76.80;;;;;;5070830;28;20529;-54
2021/05/09 06:31:32;;;;;;;9.07;5.68;;;16.40;76.80;;;;;;5071326;28;20111;-55
2021/05/09 06:33:58;;;;;;;7.60;5.15;;;16.40;76.90;;;;;;5071717;28;20055;-56
2021/05/09 06:36:25;;;;;;;10.20;5.68;;;16.50;77.20;;;;;;5060739;28;20045;-55
2021/05/09 06:38:50;;;;;;;8.73;5.68;;;16.50;76.70;;;;;;5054115;28;20051;-55
2021/05/09 06:41:21;;;;;;;8.10;5.00;;;16.60;75.50;;;;;;5071099;28;20040;-55
2021/05/09 06:43:47;;;;;;;8.10;5.47;;;16.60;75.70;;;;;;5071824;28;20040;-54
2021/05/09 06:46:13;;;;;;;8.23;5.60;;;16.60;76.00;;;;;;5071464;28;20048;-54
2021/05/09 06:48:38;;;;;;;9.68;5.65;;;16.60;75.70;;;;;;5070081;28;20041;-53
2021/05/09 06:51:04;;;;;;;11.13;5.70;;;16.50;76.40;;;;;;5069233;28;20049;-55
2021/05/09 06:53:30;;;;;;;9.35;5.22;;;16.50;76.70;;;;;;5069984;28;20033;-57
2021/05/09 06:55:58;;;;;;;9.02;5.70;;;16.60;75.60;;;;;;5053849;28;20489;-53
2021/05/09 06:58:24;;;;;;;9.00;4.97;;;16.60;75.90;;;;;;5070208;28;20044;-54
2021/05/09 07:00:50;;;;;;;9.35;5.82;;;16.60;76.70;;;;;;5068469;28;20446;-56
2021/05/09 07:03:16;;;;;;;11.48;5.63;;;16.60;76.10;;;;;;5069681;28;20152;-57
2021/05/09 07:05:43;;;;;;;10.65;5.53;;;16.60;77.10;;;;;;5051953;28;20127;-57
2021/05/09 07:08:08;;;;;;;9.70;5.50;;;16.70;77.60;;;;;;5068094;28;20120;-52
2021/05/09 07:10:35;;;;;;;8.95;5.18;;;16.70;76.60;;;;;;5069279;28;20127;-55
2021/05/09 07:13:01;;;;;;;8.65;4.70;;;16.70;76.80;;;;;;5065834;28;20519;-55
2021/05/09 07:15:30;;;;;;;9.52;5.07;;;16.70;75.20;;;;;;5066883;28;20056;-53
2021/05/09 07:18:00;;;;;;;9.45;4.75;;;16.70;75.20;;;;;;5074841;28;20055;-55
2021/05/09 07:20:26;;;;;;;8.95;5.10;;;16.70;75.80;;;;;;5070050;28;20504;-54
2021/05/09 07:22:54;;;;;;;11.70;5.15;;;16.70;76.20;;;;;;5074617;28;20098;-52
2021/05/09 07:25:21;;;;;;;10.32;5.07;;;16.70;76.10;;;;;;5073898;28;20108;-56
2021/05/09 07:27:46;;;;;;;8.80;4.80;;;16.80;76.30;;;;;;5073027;28;20064;-56
2021/05/09 07:30:13;;;;;;;8.98;5.15;;;16.80;76.10;;;;;;5073131;28;22120;-55
2021/05/09 07:32:38;;;;;;;8.00;4.57;;;16.80;75.40;;;;;;5073887;28;20045;-57
2021/05/09 07:35:04;;;;;;;7.53;4.80;;;16.90;74.60;;;;;;5073822;28;20036;-57
2021/05/09 07:37:30;;;;;;;9.35;4.43;;;16.90;75.00;;;;;;5054932;28;20415;-55
2021/05/09 07:39:55;;;;;;;9.93;4.28;;;17.10;74.00;;;;;;5072967;28;20045;-56
2021/05/09 07:42:21;;;;;;;10.82;4.38;;;17.00;74.20;;;;;;5073365;28;20382;-56
2021/05/09 07:44:47;;;;;;;8.77;4.65;;;17.10;74.10;;;;;;5073584;28;20024;-57
2021/05/09 07:47:12;;;;;;;8.98;4.90;;;17.10;73.80;;;;;;5071900;28;20721;-56
2021/05/09 07:49:38;;;;;;;9.07;4.30;;;17.10;74.30;;;;;;5071205;28;20052;-57
2021/05/09 07:52:04;;;;;;;10.27;4.57;;;17.20;73.30;;;;;;5072211;28;20496;-56
2021/05/09 07:54:29;;;;;;;8.00;4.20;;;17.20;72.70;;;;;;5097670;22;20048;-54
2021/05/09 07:56:55;;;;;;;7.32;4.28;;;17.30;73.40;;;;;;5077554;28;20044;-54
2021/05/09 07:59:21;;;;;;;8.43;4.45;;;17.40;72.50;;;;;;5049897;28;20094;-55
2021/05/09 08:01:47;;;;;;;7.95;4.05;;;17.40;73.10;;;;;;5060873;28;20037;-52
2021/05/09 08:04:12;;;;;;;7.85;4.18;;;17.50;73.40;;;;;;5075580;28;20036;-52
2021/05/09 08:06:39;;;;;;;7.28;4.05;;;17.60;73.40;;;;;;5069686;28;20124;-53
2021/05/09 08:09:06;;;;;;;8.68;4.13;;;17.70;72.30;;;;;;5073554;28;20071;-53
2021/05/09 08:11:31;;;;;;;6.82;3.90;;;17.90;72.80;;;;;;5071456;28;20045;-52
2021/05/09 08:13:57;;;;;;;7.55;3.70;;;18.00;73.50;;;;;;5072642;28;20434;-55
2021/05/09 08:16:23;;;;;;;6.35;3.53;;;18.20;72.00;;;;;;5074431;28;20044;-53
2021/05/09 08:18:48;;;;;;;6.38;3.60;;;18.30;71.20;;;;;;5072214;28;20510;-51
2021/05/09 08:21:14;;;;;;;7.07;3.63;;;18.50;69.80;;;;;;5072702;28;20128;-51
2021/05/09 08:23:43;;;;;;;9.00;3.90;;;18.60;69.30;;;;;;5076429;28;20044;-53
2021/05/09 08:26:12;;;;;;;9.18;3.88;;;18.60;67.90;;;;;;5072748;28;20044;-52
2021/05/09 08:28:40;;;;;;;7.20;3.30;;;18.70;69.40;;;;;;5075588;28;20043;-52
2021/05/09 08:31:06;;;;;;;5.70;3.13;;;18.80;68.40;;;;;;5079633;28;20036;-55
2021/05/09 08:33:31;;;;;;;6.38;3.50;;;19.00;67.20;;;;;;5076737;28;20032;-52
2021/05/09 08:35:57;;;;;;;8.00;3.03;;;19.10;67.60;;;;;;5073246;28;20292;-52
2021/05/09 08:38:24;;;;;;;5.95;3.53;;;19.20;66.00;;;;;;5077481;28;20032;-52
2021/05/09 08:40:50;;;;;;;7.38;3.38;;;19.30;67.60;;;;;;5075351;28;20432;-52
2021/05/09 08:43:16;;;;;;;5.03;3.28;;;19.40;66.50;;;;;;5073363;28;20051;-52
2021/05/09 08:45:41;;;;;;;4.40;2.75;;;19.50;66.30;;;;;;5073483;28;20087;-52
2021/05/09 08:48:12;;;;;;;6.68;2.90;;;19.60;65.20;;;;;;5073709;28;20063;-53
2021/05/09 08:50:38;;;;;;;6.57;2.92;;;19.70;65.00;;;;;;5073850;28;20075;-50
2021/05/09 08:53:03;;;;;;;8.18;3.00;;;19.80;66.40;;;;;;5073284;28;20060;-52
2021/05/09 08:55:29;;;;;;;5.50;2.95;;;19.90;65.20;;;;;;5072725;28;20032;-52
2021/05/09 08:57:56;;;;;;;6.50;2.90;;;20.00;65.10;;;;;;5072966;28;20056;-55
2021/05/09 09:00:24;;;;;;;5.53;2.60;;;20.10;62.60;;;;;;5069202;28;20041;-49
2021/05/09 09:02:50;;;;;;;5.32;2.60;;;20.20;61.80;;;;;;5071377;28;20036;-54
2021/05/09 09:05:16;;;;;;;5.90;2.65;;;20.30;61.00;;;;;;5072710;28;20550;-49
2021/05/09 09:07:45;;;;;;;4.35;2.55;;;20.40;62.30;;;;;;5072120;28;20032;-51
2021/05/09 09:10:32;;;;;;;5.72;2.45;;;20.50;63.10;;;;;;5070855;28;20049;-53
2021/05/09 09:13:02;;;;;;;5.88;2.40;;;20.60;62.50;;;;;;5070112;28;20129;-51
2021/05/09 09:15:48;;;;;;;4.78;2.30;;;20.70;60.60;;;;;;5061315;28;20112;-53
2021/05/09 09:18:32;;;;;;;3.75;2.10;;;20.70;59.10;;;;;;5069482;28;20389;-51
2021/05/09 09:21:18;;;;;;;4.45;2.13;;;20.60;60.10;;;;;;5071405;28;20043;-59
2021/05/09 09:23:46;;;;;;;3.67;2.00;;;20.60;56.80;;;;;;5072284;28;20043;-52
2021/05/09 09:26:31;;;;;;;4.22;2.30;;;20.70;57.90;;;;;;5071667;28;20040;-53
2021/05/09 09:28:58;;;;;;;4.32;2.40;;;20.60;58.50;;;;;;5067395;28;20073;-54
2021/05/09 09:31:38;;;;;;;6.35;2.85;;;20.60;60.20;;;;;;5071242;28;20036;-53
2021/05/09 09:34:04;;;;;;;4.18;2.28;;;20.40;61.60;;;;;;5053092;28;20530;-53
2021/05/09 09:36:30;;;;;;;5.45;2.10;;;20.30;63.60;;;;;;5066461;28;20068;-54
2021/05/09 09:38:56;;;;;;;3.72;2.15;;;20.20;63.30;;;;;;5050823;28;20458;-55
2021/05/09 09:41:22;;;;;;;4.55;2.25;;;20.10;63.70;;;;;;5071152;28;20123;-54
2021/05/09 09:44:08;;;;;;;4.18;2.10;;;20.00;64.80;;;;;;5071836;28;20390;-54
2021/05/09 09:46:36;;;;;;;3.30;2.10;;;20.00;62.70;;;;;;5071200;28;20452;-51
2021/05/09 09:49:04;;;;;;;4.30;1.95;;;20.00;62.60;;;;;;5074101;28;20135;-53
2021/05/09 09:51:47;;;;;;;3.88;2.10;;;20.10;62.80;;;;;;5073469;28;20044;-53
2021/05/09 09:54:29;;;;;;;5.13;2.45;;;20.30;60.90;;;;;;5072615;28;20124;-53
2021/05/09 09:56:55;;;;;;;4.30;1.92;;;20.50;60.00;;;;;;5070674;28;20128;-53
2021/05/09 09:59:21;;;;;;;5.05;2.42;;;20.70;59.50;;;;;;5073460;28;20049;-53
2021/05/09 10:01:47;;;;;;;3.30;2.10;;;20.90;58.80;;;;;;5070855;28;20033;-52
2021/05/09 10:04:13;;;;;;;6.88;2.20;;;21.00;58.40;;;;;;5074252;28;20391;-51
2021/05/09 10:06:39;;;;;;;5.00;2.30;;;21.10;58.00;;;;;;5070714;28;20075;-55
2021/05/09 10:09:07;;;;;;;5.65;2.40;;;21.10;57.80;;;;;;5071872;28;20029;-53
2021/05/09 10:11:33;;;;;;;4.45;2.40;;;21.20;58.20;;;;;;5070049;28;20079;-53
2021/05/09 10:13:59;;;;;;;4.15;2.10;;;21.20;58.60;;;;;;5053052;28;20068;-53
2021/05/09 10:16:31;;;;;;;5.93;2.25;;;21.40;59.40;;;;;;5075158;28;20041;-53
2021/05/09 10:18:59;;;;;;;6.30;2.10;;;21.60;56.50;;;;;;5054258;28;20048;-55
2021/05/09 10:21:33;;;;;;;4.40;2.03;;;21.70;56.70;;;;;;5071929;28;20407;-52
2021/05/09 10:24:11;;;;;;;4.82;2.05;;;21.80;56.70;;;;;;5066348;28;20033;-53
2021/05/09 10:27:04;;;;;;;3.55;1.70;;;22.00;56.60;;;;;;5065285;28;20127;-54
2021/05/09 10:29:36;;;;;;;3.03;1.73;;;22.30;56.20;;;;;;5072696;28;20060;-53
2021/05/09 10:32:19;;;;;;;6.63;1.80;;;22.60;54.40;;;;;;5079611;28;20047;-53
2021/05/09 10:34:54;;;;;;;4.55;1.50;;;22.70;50.80;;;;;;5085085;28;20123;-54
2021/05/09 10:37:42;;;;;;;2.90;1.50;;;22.80;50.40;;;;;;5079918;28;20047;-53
2021/05/09 10:40:31;;;;;;;3.90;1.55;;;22.90;51.30;;;;;;5051466;28;20095;-53
2021/05/09 10:43:03;;;;;;;4.95;1.90;;;23.10;52.10;;;;;;5085957;28;20047;-51
2021/05/09 10:45:35;;;;;;;;;;;23.30;51.60;;;;;;5061917;28;20070;-55
2021/05/09 10:48:16;;;;;;;2.83;1.50;;;23.50;49.90;;;;;;5047872;28;20302;-55
2021/05/09 10:50:47;;;;;;;3.77;1.50;;;23.60;50.80;;;;;;5061272;28;20072;-53
2021/05/09 10:53:34;;;;;;;3.50;1.60;;;23.70;46.40;;;;;;5051963;28;20040;-53
2021/05/09 10:56:08;;;;;;;4.10;1.60;;;23.80;49.50;;;;;;5033798;28;20094;-53
2021/05/09 10:58:49;;;;;;;2.17;1.60;;;23.90;48.60;;;;;;5069666;28;20539;-53
2021/05/09 11:01:26;;;;;;;2.67;1.70;;;23.90;49.20;;;;;;5071197;28;20451;-54
2021/05/09 11:03:53;;;;;;;3.13;1.80;;;23.80;48.60;;;;;;5057232;28;20503;-56
2021/05/09 11:06:25;;;;;;;3.28;1.70;;;23.60;48.80;;;;;;5076030;28;20064;-54
2021/05/09 11:08:55;;;;;;;;;;;23.50;49.60;;;;;;5076776;28;20045;-53
2021/05/09 11:11:33;;;;;;;3.15;1.80;;;23.40;50.30;;;;;;5075281;28;20342;-54
2021/05/09 11:14:02;;;;;;;3.90;1.90;;;23.40;50.50;;;;;;5077657;28;20119;-54
2021/05/09 11:16:42;;;;;;;5.10;2.08;;;23.40;52.10;;;;;;5068719;28;20032;-57
2021/05/09 11:19:10;;;;;;;3.28;1.83;;;23.70;51.40;;;;;;5069718;28;20040;-52
2021/05/09 11:21:37;;;;;;;5.03;1.75;;;23.90;52.60;;;;;;5068071;28;20035;-52
2021/05/09 11:24:06;;;;;;;3.25;1.70;;;24.10;52.90;;;;;;5070591;28;20051;-52
2021/05/09 11:26:37;;;;;;;2.22;1.67;;;24.30;49.70;;;;;;5069546;28;20059;-53
2021/05/09 11:29:17;;;;;;;3.30;1.90;;;24.40;49.20;;;;;;5069123;28;20060;-55
2021/05/09 11:31:51;;;;;;;3.50;1.80;;;24.40;51.00;;;;;;5050395;28;20033;-53
2021/05/09 11:34:19;;;;;;;2.10;1.65;;;24.50;52.80;;;;;;5075325;28;20051;-52
2021/05/09 11:36:47;;;;;;;4.25;1.80;;;24.60;52.00;;;;;;5057865;28;20179;-53
2021/05/09 11:39:18;;;;;;;3.65;1.80;;;24.70;51.30;;;;;;5050817;28;20121;-52
2021/05/09 11:41:55;;;;;;;3.17;2.00;;;24.80;52.80;;;;;;5069781;28;20033;-51
2021/05/09 11:44:22;;;;;;;5.30;1.95;;;25.00;50.70;;;;;;5073544;28;20090;-55
2021/05/09 11:46:52;;;;;;;3.15;1.75;;;24.90;51.20;;;;;;5064594;28;20040;-54
2021/05/09 11:49:36;;;;;;;4.93;1.98;;;24.80;51.80;;;;;;5067729;28;20040;-51
2021/05/09 11:52:14;;;;;;;4.72;2.00;;;24.80;51.50;;;;;;5057678;28;20048;-55
2021/05/09 11:54:45;;;;;;;5.50;2.13;;;24.90;51.20;;;;;;5073153;28;20067;-57
2021/05/09 11:57:11;;;;;;;;;;;24.90;49.90;;;;;;5056582;28;20393;-52
2021/05/09 11:59:42;;;;;;;3.00;1.90;;;24.80;51.60;;;;;;5071566;28;19924;-51
2021/05/09 12:02:21;;;;;;;3.08;1.90;;;24.80;50.80;;;;;;5071796;28;20090;-54
2021/05/09 12:04:57;;;;;;;3.03;1.80;;;24.70;51.30;;;;;;5077590;28;20029;-54
2021/05/09 12:07:36;;;;;;;6.10;1.75;;;24.70;51.00;;;;;;5054291;28;20045;-52
2021/05/09 12:10:04;;;;;;;2.70;1.92;;;24.60;52.00;;;;;;5077375;28;20335;-51
2021/05/09 12:12:32;;;;;;;2.88;1.80;;;24.60;53.70;;;;;;5055218;28;20072;-53
2021/05/09 12:15:07;;;;;;;3.28;1.90;;;24.70;51.00;;;;;;5078365;28;20115;-54
2021/05/09 12:17:33;;;;;;;3.95;1.98;;;24.70;50.40;;;;;;5077799;28;20074;-52
2021/05/09 12:19:59;;;;;;;3.60;1.90;;;24.70;51.10;;;;;;5048371;28;20040;-54
2021/05/09 12:22:25;;;;;;;5.05;2.15;;;24.70;51.20;;;;;;5081613;28;20047;-53
2021/05/09 12:24:57;;;;;;;3.70;1.92;;;24.60;51.70;;;;;;5069835;28;20044;-52
2021/05/09 12:27:24;;;;;;;4.05;1.80;;;24.60;52.30;;;;;;5074141;28;20048;-52
2021/05/09 12:29:57;;;;;;;3.30;2.15;;;24.60;51.90;;;;;;5070285;28;20398;-54
2021/05/09 12:32:25;;;;;;;4.68;2.00;;;24.60;51.30;;;;;;5075714;28;20033;-52
2021/05/09 12:35:18;;;;;;;5.55;2.20;;;24.50;51.50;;;;;;5073053;28;20245;-52
2021/05/09 12:37:47;;;;;;;4.63;2.33;;;24.40;51.40;;;;;;5071405;28;20053;-52
2021/05/09 12:40:23;;;;;;;4.07;2.20;;;24.40;51.40;;;;;;5072436;28;20105;-52
2021/05/09 12:42:53;;;;;;;3.80;1.90;;;24.30;52.30;;;;;;5085182;28;20494;-54
2021/05/09 12:45:36;;;;;;;5.13;2.22;;;24.10;52.30;;;;;;5066533;28;20139;-50
2021/05/09 12:48:17;;;;;;;3.28;2.10;;;24.00;52.60;;;;;;5073445;28;20040;-52
2021/05/09 12:50:49;;;;;;;3.15;2.08;;;23.80;53.80;;;;;;5067000;28;20041;-51
2021/05/09 12:53:17;;;;;;;5.13;2.10;;;23.70;53.50;;;;;;5073833;28;20048;-53